Flight Briefing for CPX31

Departure Arrival
Tokyo-Narita International Airport (RJAA)
Click to view FAA NOTAMS
Ted Stevens Anchorage International Airport (PANC)
Click to view FAA NOTAMS
Departure Time Arrival Time
N/A N/A
Aircraft Distance
B767-300BDSF 2981nm
Departure METAR Arrival METAR
RJAA 190730Z 24006KT 160V280 9999 FEW030 BKN/// 17/02 Q1012 BECMG 26006KT RMK 1CU030 A2990 PANC 190653Z 15017G23KT 10SM FEW050 SCT070 BKN090 05/00 A2949 RMK AO2 PK WND 15031/0634 SLP987 T00500000
Suggested Route
CUPID Y808 ALLEN Y812 SCORE R591 EHM R591 HAMND NEELL6


View recent IFR Routes data
Notes



Charts and Procedures

Charts for RJAA
No chart available
Charts for PANC
No chart available

Windy.com Weather Map